Terminal Aerodrome Forecast
Issued by NWS Billings, MT

Home | Current Version | Previous Version | Graphics & Text | Print | Product List | Glossary On
Versions: 1 2 3 4 5 6 7 8 9 10 11 12 13 14 15 16 17 18 19 20 21 22 23 24
000
FTUS45 KBYZ 122327
TAFMLS
TAF
KMLS 122327Z 1300/1324 27011KT P6SM SKC
     FM130100 30014G22KT P6SM SCT250
     FM130500 31015KT P6SM SCT200 WS020/32045KT
     FM131300 29015G30KT P6SM SKC
     FM132000 30014G20KT P6SM SCT250=

USA.gov is the U.S. government's official web portal to all federal, state and local government web resources and services.